Time;durP1;ratioP1;P1;durP2;ratioP2;P2;SDS_P1;SDS_P2;PMS_P1;PMS_P2;Temp;Humidity;BMP_temperature;BMP_pressure;BME280_temperature;BME280_humidity;BME280_pressure;Samples;Min_cycle;Max_cycle;Signal;HPM_P1;HPM_P2
2023/11/02 05:31:38;;;;;;;0.10;0.10;;;12.20;76.80;;;;;;5398476;22;20069;-78
2023/11/02 05:34:03;;;;;;;0.10;0.10;;;12.20;77.20;;;;;;4990371;28;20365;-78
2023/11/02 05:36:29;;;;;;;0.10;0.10;;;12.20;76.70;;;;;;4997771;28;20032;-78
2023/11/02 05:38:55;;;;;;;0.10;0.10;;;12.20;76.50;;;;;;4998863;28;20026;-78
2023/11/02 05:41:21;;;;;;;0.10;0.10;;;12.20;75.80;;;;;;4971591;28;20019;-78
2023/11/02 05:43:47;;;;;;;0.10;0.10;;;12.20;75.70;;;;;;4963635;28;20086;-78
2023/11/02 05:46:12;;;;;;;0.10;0.10;;;12.20;74.70;;;;;;4961383;28;20026;-78
2023/11/02 05:48:38;;;;;;;0.10;0.10;;;12.20;74.80;;;;;;4966505;28;20034;-78
2023/11/02 05:51:04;;;;;;;0.10;0.10;;;12.20;74.60;;;;;;4990279;28;20027;-78
2023/11/02 05:53:30;;;;;;;0.10;0.10;;;12.20;74.20;;;;;;4980597;28;20078;-78
2023/11/02 05:55:55;;;;;;;0.10;0.10;;;12.20;74.20;;;;;;4980918;28;20405;-78
2023/11/02 05:58:21;;;;;;;0.10;0.10;;;12.20;72.80;;;;;;4980971;28;20034;-78
2023/11/02 06:00:47;;;;;;;0.10;0.10;;;12.20;73.10;;;;;;4979342;28;20085;-78
2023/11/02 06:03:13;;;;;;;0.10;0.10;;;12.20;73.10;;;;;;4980404;28;20041;-78
2023/11/02 06:05:39;;;;;;;0.10;0.10;;;12.10;72.60;;;;;;4982744;28;20426;-78
2023/11/02 06:08:04;;;;;;;0.10;0.10;;;12.10;72.90;;;;;;4998954;28;20387;-77
2023/11/02 06:10:30;;;;;;;0.10;0.10;;;12.00;72.70;;;;;;4980483;28;20077;-78
2023/11/02 06:12:55;;;;;;;0.10;0.10;;;12.00;73.60;;;;;;4980519;28;20026;-78
2023/11/02 06:15:21;;;;;;;0.10;0.10;;;12.00;73.60;;;;;;4963430;28;20113;-78
2023/11/02 06:17:47;;;;;;;0.10;0.10;;;11.90;74.30;;;;;;4980138;28;20034;-79
2023/11/02 06:20:13;;;;;;;0.10;0.10;;;11.90;74.50;;;;;;4965319;28;20098;-78
2023/11/02 06:22:39;;;;;;;0.10;0.10;;;11.80;74.70;;;;;;4980372;28;20030;-78
2023/11/02 06:25:05;;;;;;;0.10;0.10;;;11.80;75.00;;;;;;4966385;28;20027;-78
2023/11/02 06:27:31;;;;;;;0.10;0.10;;;11.80;75.20;;;;;;4961111;29;20042;-77
2023/11/02 06:29:56;;;;;;;0.08;0.08;;;11.80;74.80;;;;;;4965944;28;20015;-78
2023/11/02 06:32:22;;;;;;;0.10;0.10;;;11.70;74.80;;;;;;4959615;29;20114;-77
2023/11/02 06:34:48;;;;;;;0.10;0.10;;;11.70;75.20;;;;;;4960653;28;20015;-78
2023/11/02 06:37:18;;;;;;;0.10;0.10;;;11.70;75.20;;;;;;4958762;28;20062;-77
2023/11/02 06:39:44;;;;;;;0.10;0.10;;;11.60;74.70;;;;;;4975134;28;20022;-78
2023/11/02 06:42:10;;;;;;;0.10;0.10;;;11.70;74.60;;;;;;4961038;28;20039;-78
2023/11/02 06:44:39;;;;;;;0.10;0.10;;;11.60;74.00;;;;;;4959532;29;20390;-77
2023/11/02 06:47:05;;;;;;;0.00;0.00;;;11.70;73.90;;;;;;4960431;28;20086;-77
2023/11/02 06:49:31;;;;;;;0.10;0.10;;;11.70;73.70;;;;;;4960782;28;20030;-77
2023/11/02 06:51:56;;;;;;;0.10;0.10;;;11.80;73.70;;;;;;4960591;29;20679;-78
2023/11/02 06:54:22;;;;;;;0.13;0.13;;;11.80;73.60;;;;;;4959494;28;20016;-78
2023/11/02 06:56:48;;;;;;;0.10;0.10;;;11.80;73.70;;;;;;4960154;28;20402;-77
2023/11/02 06:59:14;;;;;;;0.10;0.10;;;11.80;73.20;;;;;;4960644;29;20024;-78
2023/11/02 07:01:41;;;;;;;0.10;0.10;;;11.80;73.80;;;;;;4960501;28;20027;-78
2023/11/02 07:04:06;;;;;;;0.10;0.10;;;11.80;73.90;;;;;;4959996;28;20027;-77
2023/11/02 07:06:33;;;;;;;0.10;0.10;;;11.80;74.20;;;;;;4960763;28;20490;-78
2023/11/02 07:08:59;;;;;;;0.00;0.00;;;11.80;74.80;;;;;;4960433;29;20082;-78
2023/11/02 07:11:24;;;;;;;0.10;0.10;;;11.80;74.60;;;;;;4958089;28;20055;-77
2023/11/02 07:13:50;;;;;;;0.10;0.10;;;11.70;74.10;;;;;;4958899;29;20035;-77
2023/11/02 07:16:15;;;;;;;0.10;0.10;;;11.70;73.60;;;;;;4960277;29;20401;-77
2023/11/02 07:18:41;;;;;;;0.10;0.10;;;11.60;72.70;;;;;;4959607;29;20030;-79
2023/11/02 07:21:07;;;;;;;0.10;0.10;;;11.70;73.00;;;;;;4959440;28;20038;-84
2023/11/02 07:23:32;;;;;;;0.10;0.10;;;11.80;72.40;;;;;;4959837;29;20031;-82
2023/11/02 07:25:58;;;;;;;0.10;0.10;;;11.80;71.90;;;;;;4945605;29;20406;-87
2023/11/02 07:28:24;;;;;;;0.10;0.10;;;12.00;71.30;;;;;;4946410;29;20022;-86
2023/11/02 07:30:49;;;;;;;0.10;0.10;;;12.00;71.20;;;;;;4971373;28;20050;-85
2023/11/02 07:33:15;;;;;;;0.10;0.10;;;12.00;70.70;;;;;;4981090;28;20081;-86
2023/11/02 07:35:40;;;;;;;0.10;0.10;;;12.10;70.60;;;;;;4979775;28;20081;-84
2023/11/02 07:38:06;;;;;;;0.10;0.10;;;12.20;70.50;;;;;;4978726;28;20054;-83
2023/11/02 07:40:32;;;;;;;0.10;0.10;;;12.20;70.80;;;;;;4985664;28;20054;-82
2023/11/02 07:42:57;;;;;;;0.10;0.10;;;12.30;70.70;;;;;;4998255;28;20058;-81
2023/11/02 07:45:24;;;;;;;0.10;0.10;;;12.30;69.60;;;;;;4988021;28;20027;-80
2023/11/02 07:47:50;;;;;;;0.10;0.10;;;12.30;69.30;;;;;;4976993;28;21118;-89
2023/11/02 07:50:15;;;;;;;0.10;0.10;;;12.30;69.10;;;;;;4980750;28;20104;-88
2023/11/02 07:52:41;;;;;;;0.00;0.00;;;12.30;69.90;;;;;;4954540;28;20027;-83
2023/11/02 07:55:09;;;;;;;0.10;0.10;;;12.30;69.80;;;;;;4952949;28;20371;-80
2023/11/02 07:57:35;;;;;;;0.10;0.10;;;12.20;70.70;;;;;;4967306;28;20397;-82
2023/11/02 08:00:00;;;;;;;0.10;0.10;;;12.20;70.80;;;;;;4975200;28;20027;-79
2023/11/02 08:02:26;;;;;;;0.10;0.10;;;12.10;71.90;;;;;;4953358;28;20482;-82
2023/11/02 08:04:51;;;;;;;0.10;0.10;;;12.10;72.20;;;;;;4967420;28;20445;-85
2023/11/02 08:07:17;;;;;;;0.10;0.10;;;12.10;72.50;;;;;;4945927;28;20034;-84
2023/11/02 08:09:43;;;;;;;0.10;0.10;;;12.10;72.60;;;;;;4956553;28;20053;-81
2023/11/02 08:12:10;;;;;;;0.10;0.10;;;12.10;72.20;;;;;;4968153;28;20038;-82
2023/11/02 08:14:36;;;;;;;0.10;0.10;;;12.00;72.20;;;;;;4944941;28;20069;-83
2023/11/02 08:17:03;;;;;;;0.10;0.10;;;12.10;72.60;;;;;;4951788;28;20030;-83
2023/11/02 08:19:29;;;;;;;0.10;0.10;;;12.10;72.80;;;;;;4946709;28;20038;-82
2023/11/02 08:21:55;;;;;;;0.10;0.10;;;12.20;72.50;;;;;;4951678;28;20031;-83
2023/11/02 08:24:21;;;;;;;0.10;0.10;;;12.30;72.40;;;;;;4971110;28;20041;-83
2023/11/02 08:26:47;;;;;;;0.10;0.10;;;12.40;72.30;;;;;;4967608;28;20023;-82
2023/11/02 08:29:12;;;;;;;0.10;0.10;;;12.40;71.90;;;;;;4969053;28;20051;-83
2023/11/02 08:31:39;;;;;;;0.10;0.10;;;12.50;71.80;;;;;;4954579;28;20042;-81
2023/11/02 08:34:05;;;;;;;0.10;0.10;;;12.40;72.20;;;;;;4967676;28;20534;-88
2023/11/02 08:36:31;;;;;;;0.10;0.10;;;12.40;72.30;;;;;;4953976;28;20081;-78
2023/11/02 08:38:57;;;;;;;0.10;0.10;;;12.30;72.00;;;;;;4971811;28;20042;-81
2023/11/02 08:41:24;;;;;;;0.00;0.00;;;12.30;72.30;;;;;;4970482;28;20026;-82
2023/11/02 08:43:50;;;;;;;0.10;0.10;;;12.30;72.10;;;;;;4971365;28;20415;-87
2023/11/02 08:46:22;;;;;;;0.10;0.10;;;12.10;72.80;;;;;;4942769;28;20405;-86
2023/11/02 08:48:49;;;;;;;0.10;0.10;;;11.90;72.30;;;;;;4951309;28;20189;-87
2023/11/02 08:51:16;;;;;;;0.10;0.10;;;11.80;73.90;;;;;;4969588;28;20031;-89
2023/11/02 08:53:42;;;;;;;0.10;0.10;;;11.70;75.30;;;;;;4949395;28;20030;-88
2023/11/02 08:56:09;;;;;;;0.10;0.10;;;11.50;75.70;;;;;;4950332;28;20115;-86
2023/11/02 08:58:42;;;;;;;0.10;0.10;;;11.60;75.30;;;;;;4950219;28;20102;-88
2023/11/02 09:01:08;;;;;;;0.00;0.00;;;11.70;74.70;;;;;;4957377;28;20544;-88
2023/11/02 09:03:38;;;;;;;0.10;0.10;;;11.80;74.00;;;;;;4973493;28;20028;-85
2023/11/02 09:06:08;;;;;;;0.10;0.10;;;11.70;73.80;;;;;;4954353;28;20039;-87
2023/11/02 09:08:37;;;;;;;0.10;0.10;;;11.70;74.10;;;;;;4956583;28;20015;-87
2023/11/02 09:11:06;;;;;;;0.10;0.10;;;11.80;74.00;;;;;;4972864;28;20034;-89
2023/11/02 09:13:32;;;;;;;0.10;0.10;;;11.80;74.20;;;;;;4955979;28;20019;-88
2023/11/02 09:15:58;;;;;;;0.10;0.10;;;11.80;74.30;;;;;;4971318;28;20050;-88
2023/11/02 09:18:24;;;;;;;0.10;0.10;;;11.90;73.20;;;;;;4954235;28;20030;-86
2023/11/02 09:20:50;;;;;;;0.10;0.10;;;12.00;73.80;;;;;;4958925;28;20042;-87
2023/11/02 09:23:16;;;;;;;0.10;0.10;;;12.00;73.60;;;;;;4972700;28;20022;-87
2023/11/02 09:25:43;;;;;;;0.10;0.10;;;11.90;73.80;;;;;;4955514;28;20039;-83
2023/11/02 09:28:13;;;;;;;0.10;0.10;;;11.80;74.10;;;;;;4971229;28;20074;-85
2023/11/02 09:30:41;;;;;;;0.10;0.10;;;11.90;74.70;;;;;;4956835;28;20057;-82
2023/11/02 09:33:06;;;;;;;0.10;0.10;;;12.00;75.10;;;;;;4969871;28;20042;-81
2023/11/02 09:35:32;;;;;;;0.10;0.10;;;12.00;75.00;;;;;;4973043;28;20040;-84
2023/11/02 09:37:57;;;;;;;0.08;0.08;;;12.00;76.60;;;;;;4952788;28;20027;-83
2023/11/02 09:40:23;;;;;;;0.10;0.10;;;11.90;77.40;;;;;;4957499;28;20034;-84
2023/11/02 09:42:50;;;;;;;0.10;0.10;;;11.90;77.60;;;;;;4949452;28;20038;-84
2023/11/02 09:45:16;;;;;;;0.10;0.10;;;12.00;78.20;;;;;;4953056;28;20527;-78
2023/11/02 09:47:42;;;;;;;0.10;0.10;;;12.20;78.40;;;;;;4970344;28;20024;-84
2023/11/02 09:50:09;;;;;;;0.10;0.10;;;12.30;78.40;;;;;;4952002;28;20030;-82
2023/11/02 09:52:35;;;;;;;0.10;0.10;;;12.30;78.20;;;;;;4972362;28;20132;-81
2023/11/02 09:55:01;;;;;;;0.10;0.10;;;12.30;77.40;;;;;;4971472;28;20042;-82
2023/11/02 09:57:27;;;;;;;0.10;0.10;;;12.30;76.80;;;;;;4969067;28;20028;-80
2023/11/02 09:59:53;;;;;;;0.10;0.10;;;12.30;76.60;;;;;;4972713;28;20053;-82
2023/11/02 10:02:22;;;;;;;0.10;0.10;;;12.30;77.30;;;;;;4969315;28;20386;-82
2023/11/02 10:04:47;;;;;;;0.10;0.10;;;12.30;76.80;;;;;;4972914;28;20556;-81
2023/11/02 10:07:13;;;;;;;0.10;0.10;;;12.20;76.60;;;;;;4971222;28;20027;-80
2023/11/02 10:09:41;;;;;;;0.10;0.10;;;12.30;76.60;;;;;;4971972;28;20034;-81
2023/11/02 10:12:07;;;;;;;0.10;0.10;;;12.30;76.10;;;;;;4973281;28;20080;-80
2023/11/02 10:14:34;;;;;;;0.10;0.10;;;12.50;75.60;;;;;;4952956;28;20022;-82
2023/11/02 10:17:03;;;;;;;0.10;0.10;;;12.40;75.70;;;;;;4971177;28;20027;-81
2023/11/02 10:19:30;;;;;;;0.10;0.10;;;12.60;76.00;;;;;;4959135;28;20050;-81
2023/11/02 10:21:56;;;;;;;0.10;0.10;;;12.80;75.50;;;;;;4971025;28;20085;-82
2023/11/02 10:24:35;;;;;;;0.10;0.10;;;12.90;74.70;;;;;;4953058;28;20058;-81
2023/11/02 10:27:04;;;;;;;0.10;0.10;;;13.00;74.00;;;;;;4970226;28;20114;-81
2023/11/02 10:29:31;;;;;;;0.10;0.10;;;13.10;73.90;;;;;;4970341;28;20027;-82
2023/11/02 10:31:58;;;;;;;0.10;0.10;;;13.10;73.70;;;;;;4970784;28;20035;-80
2023/11/02 10:34:26;;;;;;;0.10;0.10;;;13.20;73.10;;;;;;4961182;28;20111;-81
2023/11/02 10:36:56;;;;;;;0.10;0.10;;;13.30;71.90;;;;;;4976865;28;20035;-81
2023/11/02 10:39:23;;;;;;;0.10;0.10;;;13.30;72.40;;;;;;4960219;28;20027;-81
2023/11/02 10:42:03;;;;;;;0.10;0.10;;;13.40;71.80;;;;;;4976740;28;20113;-81
2023/11/02 10:44:30;;;;;;;0.10;0.10;;;13.50;72.10;;;;;;4972525;28;20019;-81
2023/11/02 10:47:01;;;;;;;0.10;0.10;;;13.70;71.60;;;;;;4970860;28;20504;-79
2023/11/02 10:49:36;;;;;;;0.10;0.10;;;13.70;69.70;;;;;;4961944;28;20488;-82
2023/11/02 10:52:11;;;;;;;0.10;0.10;;;13.70;69.20;;;;;;4973358;28;20023;-85
2023/11/02 10:54:46;;;;;;;0.20;0.20;;;13.60;68.10;;;;;;4952604;28;20038;-80
2023/11/02 10:57:16;;;;;;;0.10;0.10;;;13.70;68.70;;;;;;4952358;28;20397;-85
2023/11/02 10:59:46;;;;;;;0.10;0.10;;;13.80;67.30;;;;;;4954070;28;20027;-85
2023/11/02 11:02:15;;;;;;;0.10;0.10;;;13.80;68.30;;;;;;4969391;28;20034;-79
2023/11/02 11:04:42;;;;;;;0.10;0.10;;;13.80;67.70;;;;;;4965236;28;20102;-80
2023/11/02 11:07:11;;;;;;;0.10;0.10;;;13.80;66.40;;;;;;4970587;28;20062;-84
2023/11/02 11:09:40;;;;;;;0.10;0.10;;;13.70;66.20;;;;;;4958508;28;20055;-77
2023/11/02 11:12:06;;;;;;;0.10;0.10;;;13.60;66.20;;;;;;4954850;28;20031;-78
2023/11/02 11:14:35;;;;;;;0.10;0.10;;;13.40;66.00;;;;;;4970411;28;20029;-82
2023/11/02 11:17:01;;;;;;;0.10;0.10;;;13.40;67.10;;;;;;4954423;28;20026;-84
2023/11/02 11:19:34;;;;;;;0.10;0.10;;;13.40;67.10;;;;;;4970391;28;20036;-84
2023/11/02 11:22:06;;;;;;;0.10;0.10;;;13.50;67.20;;;;;;4969488;28;20059;-87
2023/11/02 11:24:33;;;;;;;0.10;0.10;;;13.60;66.90;;;;;;4968007;28;20023;-90
2023/11/02 11:27:00;;;;;;;0.10;0.10;;;13.70;66.80;;;;;;4954932;28;20046;-83
2023/11/02 11:29:39;;;;;;;0.10;0.10;;;13.80;66.60;;;;;;4974185;28;20100;-81
2023/11/02 11:32:07;;;;;;;0.10;0.10;;;13.80;67.00;;;;;;4955688;28;20039;-86
2023/11/02 11:34:55;;;;;;;0.20;0.10;;;13.80;67.00;;;;;;4958536;29;20030;-81
2023/11/02 11:37:44;;;;;;;0.10;0.10;;;13.80;67.20;;;;;;4948747;28;20067;-86
2023/11/02 11:40:24;;;;;;;0.10;0.10;;;13.80;66.60;;;;;;4953716;28;20043;-87
2023/11/02 11:43:05;;;;;;;0.10;0.10;;;13.80;66.70;;;;;;4943093;29;20036;-88
2023/11/02 11:45:33;;;;;;;0.10;0.10;;;13.90;66.30;;;;;;4940752;29;20035;-86
2023/11/02 11:48:03;;;;;;;0.10;0.10;;;14.00;65.90;;;;;;4937025;29;20391;-87
2023/11/02 11:50:33;;;;;;;0.10;0.10;;;14.30;66.80;;;;;;4935074;29;20561;-83
2023/11/02 11:53:18;;;;;;;0.10;0.10;;;14.50;66.20;;;;;;4937334;29;20508;-79
2023/11/02 11:55:46;;;;;;;0.10;0.10;;;14.50;65.40;;;;;;4924184;29;20055;-77
2023/11/02 11:58:12;;;;;;;0.10;0.10;;;14.70;64.90;;;;;;4944879;28;20039;-80
2023/11/02 12:00:51;;;;;;;0.10;0.10;;;14.60;63.80;;;;;;4924462;29;20035;-83
2023/11/02 12:03:35;;;;;;;0.10;0.10;;;14.70;64.80;;;;;;4940573;28;20091;-86
2023/11/02 12:06:05;;;;;;;0.10;0.10;;;14.70;63.40;;;;;;4944373;29;20027;-77
2023/11/02 12:08:34;;;;;;;0.10;0.10;;;14.60;61.50;;;;;;4958915;29;20087;-78
2023/11/02 12:11:00;;;;;;;0.10;0.10;;;14.50;61.10;;;;;;4940795;29;20038;-79
2023/11/02 12:13:27;;;;;;;0.10;0.10;;;14.40;60.40;;;;;;4949249;28;20090;-79
2023/11/02 12:15:54;;;;;;;0.10;0.10;;;14.20;60.70;;;;;;4942585;29;20618;-80
2023/11/02 12:18:48;;;;;;;0.10;0.10;;;14.20;61.10;;;;;;4958896;29;20113;-79
2023/11/02 12:21:17;;;;;;;0.10;0.10;;;14.40;62.20;;;;;;4953648;28;20047;-77
2023/11/02 12:23:44;;;;;;;0.10;0.10;;;14.60;62.00;;;;;;4941184;29;20038;-86
2023/11/02 12:26:10;;;;;;;0.10;0.10;;;14.70;61.40;;;;;;4941221;29;20035;-79
2023/11/02 12:28:46;;;;;;;0.10;0.10;;;14.80;61.10;;;;;;4951909;28;20035;-80
2023/11/02 12:31:13;;;;;;;0.10;0.10;;;14.70;61.30;;;;;;4953603;28;20047;-86
2023/11/02 12:33:39;;;;;;;0.10;0.10;;;14.70;61.10;;;;;;4960482;28;20062;-79
2023/11/02 12:36:09;;;;;;;0.10;0.10;;;14.60;61.20;;;;;;4975611;28;20087;-88
2023/11/02 12:38:48;;;;;;;0.10;0.10;;;14.40;61.50;;;;;;4942619;28;20029;-88
2023/11/02 12:41:27;;;;;;;0.10;0.10;;;14.40;62.20;;;;;;4968771;28;20037;-81
2023/11/02 12:44:08;;;;;;;0.10;0.10;;;14.40;62.00;;;;;;4952786;28;20051;-83
2023/11/02 12:46:43;;;;;;;0.10;0.10;;;14.50;62.60;;;;;;4974526;28;20565;-83
2023/11/02 12:49:19;;;;;;;0.10;0.10;;;14.40;62.10;;;;;;4957150;28;20399;-83
2023/11/02 12:51:53;;;;;;;0.10;0.10;;;14.50;63.30;;;;;;4974516;28;20378;-83
2023/11/02 12:54:20;;;;;;;0.10;0.10;;;14.60;63.20;;;;;;4971611;28;20030;-83
2023/11/02 12:56:51;;;;;;;0.10;0.10;;;14.50;62.70;;;;;;4956880;28;20038;-82
2023/11/02 12:59:17;;;;;;;0.10;0.10;;;14.40;62.90;;;;;;4972060;28;20034;-83
2023/11/02 13:01:49;;;;;;;0.10;0.10;;;14.30;62.90;;;;;;4974202;28;20030;-82
2023/11/02 13:04:15;;;;;;;0.10;0.10;;;14.30;62.20;;;;;;4972361;28;20063;-83
2023/11/02 13:06:42;;;;;;;0.10;0.10;;;14.20;62.70;;;;;;4970696;28;20026;-83
2023/11/02 13:09:18;;;;;;;0.10;0.10;;;14.00;62.90;;;;;;4972867;28;20069;-84
2023/11/02 13:11:49;;;;;;;0.00;0.00;;;13.70;61.70;;;;;;4956468;28;20452;-82
2023/11/02 13:14:17;;;;;;;0.10;0.10;;;13.50;60.80;;;;;;4972119;28;20027;-82
2023/11/02 13:16:44;;;;;;;0.10;0.10;;;13.50;61.70;;;;;;4952591;28;20072;-86
2023/11/02 13:19:10;;;;;;;0.05;0.05;;;13.50;62.10;;;;;;4961214;28;20405;-90
2023/11/02 13:21:37;;;;;;;0.10;0.10;;;13.50;63.20;;;;;;4964381;28;20027;-83
2023/11/02 13:24:06;;;;;;;0.10;0.10;;;13.50;64.20;;;;;;4962390;28;20027;-86
2023/11/02 13:26:32;;;;;;;0.10;0.10;;;13.50;62.80;;;;;;4968645;28;20078;-85
2023/11/02 13:29:01;;;;;;;0.10;0.10;;;13.50;63.40;;;;;;4942643;28;20027;-83
2023/11/02 13:31:27;;;;;;;0.10;0.10;;;13.70;62.60;;;;;;4967915;28;20054;-80
2023/11/02 13:33:53;;;;;;;0.10;0.10;;;14.00;62.30;;;;;;4965890;28;20027;-88
2023/11/02 13:36:18;;;;;;;0.10;0.10;;;14.30;62.20;;;;;;4964878;28;20035;-85
2023/11/02 13:38:45;;;;;;;0.10;0.10;;;14.70;61.60;;;;;;4953159;28;20031;-84
2023/11/02 13:41:11;;;;;;;0.10;0.10;;;14.80;61.20;;;;;;4966564;28;20458;-84
2023/11/02 13:43:37;;;;;;;0.10;0.10;;;14.60;61.40;;;;;;4945746;28;20151;-83
2023/11/02 13:46:05;;;;;;;0.10;0.10;;;14.40;61.90;;;;;;4949024;28;20498;-83
2023/11/02 13:48:31;;;;;;;0.10;0.10;;;14.40;62.80;;;;;;4970295;28;20449;-84
2023/11/02 13:50:57;;;;;;;0.10;0.10;;;14.30;62.50;;;;;;4971906;28;20023;-84
2023/11/02 13:53:23;;;;;;;0.10;0.10;;;14.30;62.00;;;;;;4969964;28;20085;-84
2023/11/02 13:55:49;;;;;;;0.00;0.00;;;14.20;61.50;;;;;;4955441;28;20023;-83
2023/11/02 13:58:15;;;;;;;0.10;0.10;;;14.00;62.30;;;;;;4956911;28;20155;-83
2023/11/02 14:00:42;;;;;;;0.10;0.10;;;14.00;62.60;;;;;;4964060;28;20023;-84
2023/11/02 14:03:08;;;;;;;0.00;0.00;;;13.90;63.40;;;;;;4966043;28;20031;-83
2023/11/02 14:05:35;;;;;;;0.10;0.10;;;13.90;64.10;;;;;;4962889;28;20099;-83
2023/11/02 14:08:02;;;;;;;0.10;0.10;;;13.70;63.60;;;;;;4945442;28;20443;-85
2023/11/02 14:10:28;;;;;;;0.10;0.10;;;13.70;64.50;;;;;;4955270;28;20039;-85
2023/11/02 14:12:55;;;;;;;0.10;0.10;;;13.70;64.30;;;;;;4952462;28;20078;-84
2023/11/02 14:15:22;;;;;;;0.10;0.10;;;13.60;64.30;;;;;;4969523;28;20034;-86
2023/11/02 14:17:48;;;;;;;0.10;0.10;;;13.60;64.10;;;;;;4956024;28;20779;-85
2023/11/02 14:20:14;;;;;;;0.10;0.10;;;13.70;63.70;;;;;;4972691;28;20030;-86
2023/11/02 14:22:40;;;;;;;0.10;0.10;;;13.70;64.00;;;;;;4952798;28;20031;-84
2023/11/02 14:25:09;;;;;;;0.10;0.10;;;13.70;64.00;;;;;;4968502;28;20035;-85
2023/11/02 14:27:35;;;;;;;0.10;0.10;;;13.60;63.30;;;;;;4964190;28;20023;-85
2023/11/02 14:30:03;;;;;;;0.10;0.10;;;13.60;63.80;;;;;;4962909;28;20031;-84
2023/11/02 14:32:29;;;;;;;0.10;0.10;;;13.50;63.90;;;;;;4959672;29;20031;-83
2023/11/02 14:34:54;;;;;;;0.10;0.10;;;13.40;63.80;;;;;;4959233;28;20516;-85
2023/11/02 14:37:20;;;;;;;0.10;0.10;;;13.40;63.80;;;;;;4941945;29;20035;-83
2023/11/02 14:39:47;;;;;;;0.10;0.10;;;13.50;64.70;;;;;;4941071;28;20078;-84
2023/11/02 14:42:13;;;;;;;0.10;0.10;;;13.50;64.70;;;;;;4938584;28;20027;-82
2023/11/02 14:44:39;;;;;;;0.10;0.10;;;13.60;64.80;;;;;;4942784;29;20034;-82
2023/11/02 14:47:05;;;;;;;0.10;0.10;;;13.60;64.70;;;;;;4959351;29;20040;-85
2023/11/02 14:49:32;;;;;;;0.10;0.10;;;13.60;64.80;;;;;;4942431;29;20382;-82
2023/11/02 14:51:59;;;;;;;0.10;0.10;;;13.50;64.90;;;;;;4957401;28;20025;-83
2023/11/02 14:54:24;;;;;;;0.10;0.10;;;13.50;65.10;;;;;;4959522;29;20023;-80
2023/11/02 14:56:51;;;;;;;0.10;0.10;;;13.50;65.40;;;;;;4941554;28;20038;-83
2023/11/02 14:59:19;;;;;;;0.10;0.10;;;13.40;65.00;;;;;;4941977;29;20039;-82
2023/11/02 15:01:47;;;;;;;0.10;0.10;;;13.30;65.00;;;;;;4958560;29;20030;-82
2023/11/02 15:04:15;;;;;;;0.10;0.10;;;13.30;65.60;;;;;;4958424;28;20040;-82
2023/11/02 15:06:42;;;;;;;0.10;0.10;;;13.40;65.40;;;;;;4941949;29;20441;-83
2023/11/02 15:09:08;;;;;;;0.10;0.10;;;13.20;65.10;;;;;;4941890;29;20035;-82
2023/11/02 15:11:34;;;;;;;0.10;0.10;;;13.20;65.80;;;;;;4941837;29;20023;-83
2023/11/02 15:14:00;;;;;;;0.10;0.10;;;13.20;66.00;;;;;;4958383;29;20106;-83
2023/11/02 15:16:26;;;;;;;0.10;0.10;;;13.10;66.10;;;;;;4957644;28;20027;-83
2023/11/02 15:18:52;;;;;;;0.10;0.10;;;13.10;66.50;;;;;;4939052;29;20037;-83
2023/11/02 15:21:17;;;;;;;0.00;0.00;;;13.10;66.70;;;;;;4941309;29;20031;-82
2023/11/02 15:23:43;;;;;;;0.10;0.10;;;13.10;67.00;;;;;;4957046;28;20027;-83
2023/11/02 15:26:09;;;;;;;0.10;0.10;;;13.10;67.10;;;;;;4958417;29;20505;-83
2023/11/02 15:28:35;;;;;;;0.10;0.10;;;13.00;67.30;;;;;;4941395;29;20042;-83
2023/11/02 15:31:01;;;;;;;0.10;0.10;;;12.90;67.40;;;;;;4963002;28;20051;-83
2023/11/02 15:33:28;;;;;;;0.10;0.10;;;12.80;67.30;;;;;;4956924;28;20106;-81
2023/11/02 15:35:54;;;;;;;0.10;0.10;;;12.80;68.10;;;;;;4952493;28;20030;-85
2023/11/02 15:38:20;;;;;;;0.10;0.10;;;12.80;68.40;;;;;;4960829;28;20023;-81
2023/11/02 15:40:46;;;;;;;0.10;0.10;;;12.80;68.50;;;;;;4978587;28;20473;-83
2023/11/02 15:43:12;;;;;;;0.10;0.10;;;12.70;68.40;;;;;;4982424;28;20796;-79
2023/11/02 15:45:38;;;;;;;0.10;0.10;;;12.70;68.80;;;;;;4963060;28;20449;-77
2023/11/02 15:48:04;;;;;;;0.10;0.10;;;12.70;68.60;;;;;;4959510;28;20038;-82
2023/11/02 15:50:30;;;;;;;0.10;0.10;;;12.70;69.00;;;;;;4963984;28;20023;-84
2023/11/02 15:52:57;;;;;;;0.10;0.10;;;12.60;68.60;;;;;;4959194;28;20042;-81
2023/11/02 15:55:26;;;;;;;0.10;0.10;;;12.50;68.80;;;;;;4957639;28;20027;-80
2023/11/02 15:57:55;;;;;;;0.10;0.10;;;12.40;69.10;;;;;;4941791;28;20592;-83
2023/11/02 16:00:21;;;;;;;0.10;0.10;;;12.30;69.00;;;;;;4939198;28;20035;-84
2023/11/02 16:02:47;;;;;;;0.10;0.10;;;12.20;69.10;;;;;;4954905;28;20058;-81
2023/11/02 16:05:13;;;;;;;0.10;0.10;;;12.20;68.80;;;;;;4951918;28;20046;-84
2023/11/02 16:07:40;;;;;;;0.10;0.10;;;12.30;68.70;;;;;;4958869;28;20852;-83
2023/11/02 16:10:07;;;;;;;0.10;0.10;;;12.20;68.50;;;;;;4962084;28;20321;-81
2023/11/02 16:12:37;;;;;;;0.10;0.10;;;12.10;68.40;;;;;;4954536;28;20430;-82
2023/11/02 16:15:04;;;;;;;0.10;0.10;;;12.00;68.20;;;;;;4959164;28;20041;-81
2023/11/02 16:17:30;;;;;;;0.10;0.10;;;12.00;68.20;;;;;;4952339;28;20066;-86
2023/11/02 16:20:00;;;;;;;0.10;0.10;;;12.00;68.40;;;;;;4954524;28;20031;-86
2023/11/02 16:22:28;;;;;;;0.10;0.10;;;12.00;68.50;;;;;;4947053;28;20066;-81
2023/11/02 16:24:54;;;;;;;0.10;0.10;;;11.90;68.30;;;;;;4949107;28;20032;-82
2023/11/02 16:27:19;;;;;;;0.10;0.10;;;11.90;68.90;;;;;;4960170;28;20046;-89
2023/11/02 16:29:45;;;;;;;0.10;0.10;;;11.80;68.60;;;;;;4962802;28;20068;-87
2023/11/02 16:32:12;;;;;;;0.00;0.00;;;11.70;69.30;;;;;;4951986;28;20194;-86
2023/11/02 16:34:38;;;;;;;0.10;0.10;;;11.70;69.50;;;;;;4954320;28;20027;-86
2023/11/02 16:37:05;;;;;;;0.10;0.10;;;11.60;69.30;;;;;;4953279;28;20602;-83
2023/11/02 16:39:32;;;;;;;0.10;0.10;;;11.50;69.40;;;;;;4941317;28;20047;-86
2023/11/02 16:42:04;;;;;;;0.10;0.10;;;11.60;70.00;;;;;;4954217;28;20032;-85
2023/11/02 16:44:31;;;;;;;0.10;0.10;;;11.60;70.10;;;;;;4961526;28;20188;-83
2023/11/02 16:46:59;;;;;;;0.10;0.10;;;11.50;70.10;;;;;;4970697;28;20286;-79
2023/11/02 16:49:24;;;;;;;0.10;0.10;;;11.50;70.20;;;;;;4955316;28;20086;-81
2023/11/02 16:51:52;;;;;;;0.10;0.10;;;11.50;70.70;;;;;;4955569;28;20019;-81
2023/11/02 16:54:20;;;;;;;0.10;0.10;;;11.50;71.00;;;;;;4970368;28;20050;-81
2023/11/02 16:56:45;;;;;;;0.10;0.10;;;11.40;71.30;;;;;;4962445;28;20596;-85
2023/11/02 16:59:16;;;;;;;0.10;0.10;;;11.40;71.50;;;;;;4957901;28;20089;-89
2023/11/02 17:01:42;;;;;;;0.00;0.00;;;11.50;71.30;;;;;;4953176;28;20037;-77
2023/11/02 17:04:07;;;;;;;0.10;0.10;;;11.50;71.80;;;;;;4951512;28;20031;-84
2023/11/02 17:06:33;;;;;;;0.10;0.10;;;11.40;71.90;;;;;;4955216;28;20035;-83
2023/11/02 17:08:59;;;;;;;0.10;0.10;;;11.40;72.20;;;;;;4952491;28;20065;-82
2023/11/02 17:11:26;;;;;;;0.10;0.10;;;11.40;72.50;;;;;;4956632;28;20115;-83
2023/11/02 17:13:52;;;;;;;0.10;0.10;;;11.40;72.50;;;;;;4962108;28;20031;-85
2023/11/02 17:16:18;;;;;;;0.10;0.10;;;11.30;72.40;;;;;;4938619;28;20097;-84
2023/11/02 17:18:44;;;;;;;0.10;0.10;;;11.30;72.50;;;;;;4956663;28;20784;-84
2023/11/02 17:21:10;;;;;;;0.10;0.10;;;11.30;72.50;;;;;;4961542;28;20307;-84
2023/11/02 17:23:41;;;;;;;0.05;0.05;;;11.30;72.30;;;;;;4955925;28;20117;-85
2023/11/02 17:26:11;;;;;;;0.10;0.10;;;11.30;72.40;;;;;;4964503;28;20038;-81
2023/11/02 17:28:38;;;;;;;0.10;0.10;;;11.30;72.70;;;;;;4956186;28;20031;-86
2023/11/02 17:31:05;;;;;;;0.10;0.10;;;11.20;73.30;;;;;;4944777;28;20047;-84
2023/11/02 17:33:33;;;;;;;0.08;0.08;;;11.20;72.80;;;;;;4941175;28;20042;-85
2023/11/02 17:35:59;;;;;;;0.10;0.10;;;11.20;72.90;;;;;;4963238;28;21157;-84
2023/11/02 17:38:25;;;;;;;0.10;0.10;;;11.20;73.20;;;;;;4955760;28;20114;-85
2023/11/02 17:40:50;;;;;;;0.10;0.10;;;11.20;72.90;;;;;;4942836;28;20035;-83
2023/11/02 17:43:16;;;;;;;0.10;0.10;;;11.10;72.40;;;;;;4956005;28;20023;-81
2023/11/02 17:45:41;;;;;;;0.00;0.00;;;11.20;72.40;;;;;;4962596;28;20028;-87
2023/11/02 17:48:08;;;;;;;0.00;0.00;;;11.10;72.30;;;;;;4956453;28;20044;-84
2023/11/02 17:50:34;;;;;;;0.10;0.10;;;11.10;72.10;;;;;;4940985;28;20050;-83
2023/11/02 17:53:00;;;;;;;0.05;0.05;;;11.10;72.20;;;;;;4943549;28;20122;-82
2023/11/02 17:55:29;;;;;;;0.10;0.10;;;11.00;71.90;;;;;;4967786;28;20504;-83
2023/11/02 17:57:54;;;;;;;0.10;0.10;;;11.00;72.30;;;;;;4946684;28;20035;-84
2023/11/02 18:00:20;;;;;;;0.10;0.10;;;11.00;72.60;;;;;;4956557;28;20035;-84
2023/11/02 18:02:45;;;;;;;0.10;0.10;;;11.00;72.60;;;;;;4965261;28;20050;-85
2023/11/02 18:05:11;;;;;;;0.05;0.05;;;11.00;73.10;;;;;;4968219;28;20031;-85
2023/11/02 18:07:37;;;;;;;0.10;0.10;;;11.00;72.80;;;;;;4959956;28;20102;-85
2023/11/02 18:10:04;;;;;;;0.10;0.10;;;10.90;72.80;;;;;;4960559;28;20510;-78
2023/11/02 18:12:30;;;;;;;0.10;0.10;;;10.90;72.50;;;;;;4973439;28;20030;-78
2023/11/02 18:14:57;;;;;;;0.10;0.10;;;10.90;72.70;;;;;;4969558;28;20031;-78
2023/11/02 18:17:24;;;;;;;0.10;0.10;;;10.90;72.70;;;;;;4953195;28;20027;-78
2023/11/02 18:19:50;;;;;;;0.00;0.00;;;10.90;73.10;;;;;;4970147;28;20031;-77